Time;durP1;ratioP1;P1;durP2;ratioP2;P2;SDS_P1;SDS_P2;PMS_P1;PMS_P2;Temp;Humidity;BMP_temperature;BMP_pressure;BME280_temperature;BME280_humidity;BME280_pressure;Samples;Min_cycle;Max_cycle;Signal;HPM_P1;HPM_P2
2022/08/29 00:00:22;;;;;;;;;;;;;;;21.81;57.71;98780.23;1657798;85;20484;-69
2022/08/29 00:02:51;;;;;;;;;;;;;;;21.84;57.54;98782.42;1658202;85;21237;-69
2022/08/29 00:05:19;;;;;;;;;;;;;;;21.87;57.43;98779.23;1658074;85;20122;-68
2022/08/29 00:07:46;;;;;;;;;;;;;;;21.88;57.38;98779.48;1658258;85;20094;-69
2022/08/29 00:10:13;;;;;;;;;;;;;;;21.89;57.30;98783.02;1657581;85;20625;-69
2022/08/29 00:12:40;;;;;;;;;;;;;;;21.90;57.29;98788.73;1648512;85;20158;-69
2022/08/29 00:15:07;;;;;;;;;;;;;;;21.92;57.20;98790.63;1657689;85;21172;-69
2022/08/29 00:17:34;;;;;;;;;;;;;;;21.93;57.00;98795.77;1657843;85;20129;-67
2022/08/29 00:20:01;;;;;;;;;;;;;;;21.95;56.87;98800.95;1657974;85;20106;-69
2022/08/29 00:22:28;;;;;;;;;;;;;;;21.96;56.78;98798.50;1658363;85;20122;-70
2022/08/29 00:24:54;;;;;;;;;;;;;;;21.96;56.81;98800.67;1658582;85;20149;-69
2022/08/29 00:27:21;;;;;;;;;;;;;;;21.96;57.01;98799.32;1658220;85;21224;-68
2022/08/29 00:29:47;;;;;;;;;;;;;;;21.95;56.99;98793.61;1657119;85;20456;-69
2022/08/29 00:32:13;;;;;;;;;;;;;;;21.97;57.04;98797.44;1658012;85;20098;-69
2022/08/29 00:34:40;;;;;;;;;;;;;;;21.98;56.84;98799.87;1658061;85;20098;-68
2022/08/29 00:37:06;;;;;;;;;;;;;;;21.98;56.67;98799.87;1658191;85;20101;-68
2022/08/29 00:39:33;;;;;;;;;;;;;;;22.00;56.58;98796.92;1657971;85;21157;-68
2022/08/29 00:42:00;;;;;;;;;;;;;;;22.00;56.58;98796.36;1657993;85;20102;-69
2022/08/29 00:44:26;;;;;;;;;;;;;;;21.99;56.49;98792.03;1658341;85;20440;-69
2022/08/29 00:46:54;;;;;;;;;;;;;;;21.99;56.31;98796.63;1657929;85;20102;-69
2022/08/29 00:49:33;;;;;;;;;;;;;;;21.98;56.58;98794.98;1657874;85;20228;-69
2022/08/29 00:52:04;;;;;;;;;;;;;;;21.94;56.71;98793.36;1657634;85;21303;-70
2022/08/29 00:54:30;;;;;;;;;;;;;;;21.91;56.78;98792.52;1658184;85;20101;-68
2022/08/29 00:56:57;;;;;;;;;;;;;;;21.88;56.86;98788.97;1658276;85;20103;-68
2022/08/29 00:59:27;;;;;;;;;;;;;;;21.88;56.92;98788.97;1658168;85;20090;-68
2022/08/29 01:01:54;;;;;;;;;;;;;;;21.89;56.94;98786.55;1657738;85;20448;-68
2022/08/29 01:04:20;;;;;;;;;;;;;;;21.90;56.95;98787.38;1657445;85;21157;-69
2022/08/29 01:06:47;;;;;;;;;;;;;;;21.92;56.91;98787.92;1658241;85;20110;-69
2022/08/29 01:09:14;;;;;;;;;;;;;;;21.96;56.86;98787.13;1658259;85;20464;-69
2022/08/29 01:14:27;;;;;;;;;;;;;;;22.03;56.80;98791.78;1639925;85;20411;-68
2022/08/29 01:16:56;;;;;;;;;;;;;;;22.08;56.74;98787.75;1657818;85;22124;-69
2022/08/29 01:19:49;;;;;;;;;;;;;;;22.12;56.66;98784.81;1657942;85;20137;-69
2022/08/29 01:22:28;;;;;;;;;;;;;;;22.16;56.53;98782.37;1651290;85;20113;-68
2022/08/29 01:24:55;;;;;;;;;;;;;;;22.20;56.45;98793.52;1642407;86;20133;-68
2022/08/29 01:27:24;;;;;;;;;;;;;;;22.21;56.49;98785.67;1646536;86;20166;-70
2022/08/29 01:29:51;;;;;;;;;;;;;;;22.20;56.46;98788.92;1639222;86;21793;-69
2022/08/29 01:32:17;;;;;;;;;;;;;;;22.20;56.52;98785.39;1639412;86;20160;-70
2022/08/29 01:34:44;;;;;;;;;;;;;;;22.19;56.61;98785.92;1639569;86;20080;-67
2022/08/29 01:37:12;;;;;;;;;;;;;;;22.19;56.63;98784.56;1639524;86;20128;-68
2022/08/29 01:39:39;;;;;;;;;;;;;;;22.19;56.61;98781.86;1637763;86;20103;-69
2022/08/29 01:42:09;;;;;;;;;;;;;;;22.19;56.65;98779.15;1636935;86;21177;-69
2022/08/29 01:44:36;;;;;;;;;;;;;;;22.20;56.73;98778.61;1638988;86;20450;-69
2022/08/29 01:47:03;;;;;;;;;;;;;;;22.19;56.81;98773.73;1667903;84;20125;-68
2022/08/29 01:49:31;;;;;;;;;;;;;;;22.20;56.86;98779.44;1640678;86;20611;-68
2022/08/29 01:51:57;;;;;;;;;;;;;;;22.21;56.83;98775.66;1666932;84;20442;-67
2022/08/29 01:54:24;;;;;;;;;;;;;;;22.24;56.86;98778.39;1620720;87;21334;-68
2022/08/29 01:56:53;;;;;;;;;;;;;;;22.27;56.93;98780.55;1640006;86;20078;-70
2022/08/29 01:59:25;;;;;;;;;;;;;;;22.28;56.92;98774.87;1640109;86;20090;-68
2022/08/29 02:01:55;;;;;;;;;;;;;;;22.30;56.98;98770.55;1612425;87;20458;-68
2022/08/29 02:04:22;;;;;;;;;;;;;;;22.33;56.92;98769.48;1640031;86;20189;-68
2022/08/29 02:06:49;;;;;;;;;;;;;;;22.35;56.93;98777.34;1609181;88;22394;-68
2022/08/29 02:09:16;;;;;;;;;;;;;;;22.37;56.96;98780.06;1632286;86;20438;-68
2022/08/29 02:11:44;;;;;;;;;;;;;;;22.41;57.00;98785.25;1631798;86;20434;-68
2022/08/29 02:14:10;;;;;;;;;;;;;;;22.45;56.93;98783.63;1632412;86;20136;-68
2022/08/29 02:16:38;;;;;;;;;;;;;;;22.48;56.82;98783.11;1632441;86;20128;-69
2022/08/29 02:19:04;;;;;;;;;;;;;;;22.53;56.73;98782.31;1628949;86;21170;-68
2022/08/29 02:21:30;;;;;;;;;;;;;;;22.54;56.63;98781.24;1628835;86;20113;-68
2022/08/29 02:23:59;;;;;;;;;;;;;;;22.56;56.62;98782.61;1632543;86;20177;-69
2022/08/29 02:26:26;;;;;;;;;;;;;;;22.57;56.63;98783.44;1632575;86;20136;-69
2022/08/29 02:28:52;;;;;;;;;;;;;;;22.58;56.66;98786.40;1632560;86;20179;-69
2022/08/29 02:31:19;;;;;;;;;;;;;;;22.59;56.61;98779.91;1631496;86;21967;-69
2022/08/29 02:33:46;;;;;;;;;;;;;;;22.59;56.59;98785.33;1632072;86;20457;-69
2022/08/29 02:36:13;;;;;;;;;;;;;;;22.59;56.62;98785.33;1632449;86;20430;-70
2022/08/29 02:38:40;;;;;;;;;;;;;;;22.57;56.70;98784.78;1632622;86;20128;-69
2022/08/29 02:41:06;;;;;;;;;;;;;;;22.56;56.79;98792.09;1632270;86;20084;-69
2022/08/29 02:43:34;;;;;;;;;;;;;;;22.57;56.82;98787.50;1631807;86;21167;-70
2022/08/29 02:46:00;;;;;;;;;;;;;;;22.57;56.90;98794.27;1632465;86;20100;-69
2022/08/29 02:48:27;;;;;;;;;;;;;;;22.57;56.93;98792.38;1631802;86;20121;-69
2022/08/29 02:50:54;;;;;;;;;;;;;;;22.57;56.94;98787.50;1631639;86;20104;-68
2022/08/29 02:53:23;;;;;;;;;;;;;;;22.57;56.99;98796.45;1633229;86;20117;-68
2022/08/29 02:55:50;;;;;;;;;;;;;;;22.57;57.04;98796.98;1644284;86;21225;-68
2022/08/29 02:58:18;;;;;;;;;;;;;;;22.57;57.07;98796.98;1644080;86;20100;-68
2022/08/29 03:00:44;;;;;;;;;;;;;;;22.54;57.14;98792.08;1643829;86;20091;-67
2022/08/29 03:03:11;;;;;;;;;;;;;;;22.52;57.20;98792.89;1643375;86;20103;-68
2022/08/29 03:05:38;;;;;;;;;;;;;;;22.49;57.27;98791.53;1644251;86;20437;-68
2022/08/29 03:08:07;;;;;;;;;;;;;;;22.47;57.40;98786.09;1644306;86;20523;-69
2022/08/29 03:10:34;;;;;;;;;;;;;;;22.47;57.50;98790.16;1643321;86;20092;-69
2022/08/29 03:13:01;;;;;;;;;;;;;;;22.45;57.54;98792.30;1643660;86;20103;-70
2022/08/29 03:15:27;;;;;;;;;;;;;;;22.44;57.62;98798.81;1642772;86;20274;-70
2022/08/29 03:17:54;;;;;;;;;;;;;;;22.42;57.67;98801.77;1643861;86;20099;-69
2022/08/29 03:20:21;;;;;;;;;;;;;;;22.40;57.73;98793.09;1643361;86;21044;-70
2022/08/29 03:22:48;;;;;;;;;;;;;;;22.38;57.78;98795.26;1643757;86;20104;-68
2022/08/29 03:25:14;;;;;;;;;;;;;;;22.37;57.81;98796.89;1644331;86;20116;-69
2022/08/29 03:27:41;;;;;;;;;;;;;;;22.33;57.92;98799.30;1644179;86;20096;-69
2022/08/29 03:30:10;;;;;;;;;;;;;;;22.30;58.08;98808.47;1643727;86;20470;-69
2022/08/29 03:32:37;;;;;;;;;;;;;;;22.30;58.21;98804.41;1643704;86;21161;-69
2022/08/29 03:35:04;;;;;;;;;;;;;;;22.28;58.27;98805.22;1644286;87;20147;-70
2022/08/29 03:37:31;;;;;;;;;;;;;;;22.28;58.31;98810.10;1644277;86;20128;-69
2022/08/29 03:39:57;;;;;;;;;;;;;;;22.26;58.45;98820.92;1644095;86;20565;-70
2022/08/29 03:42:24;;;;;;;;;;;;;;;22.28;58.52;98821.47;1643717;86;20132;-70
2022/08/29 03:44:50;;;;;;;;;;;;;;;22.30;58.55;98826.91;1644190;86;21244;-70
2022/08/29 03:47:16;;;;;;;;;;;;;;;22.33;58.54;98830.45;1643621;86;20446;-70
2022/08/29 03:49:43;;;;;;;;;;;;;;;22.36;58.52;98823.16;1643621;86;20204;-70
2022/08/29 03:52:09;;;;;;;;;;;;;;;22.40;58.47;98831.56;1643018;86;20551;-69
2022/08/29 03:54:37;;;;;;;;;;;;;;;22.44;58.42;98832.69;1637761;86;20446;-71
2022/08/29 03:57:04;;;;;;;;;;;;;;;22.46;58.42;98835.41;1632087;86;21242;-70
2022/08/29 03:59:31;;;;;;;;;;;;;;;22.49;58.33;98836.25;1631855;86;20129;-67
2022/08/29 04:01:57;;;;;;;;;;;;;;;22.53;58.32;98840.58;1630358;86;20430;-69
2022/08/29 04:07:11;;;;;;;;;;;;;;;22.66;58.24;98842.85;1632116;86;20133;-69
2022/08/29 04:09:37;;;;;;;;;;;;;;;22.76;58.07;98849.68;1631550;86;21405;-67
2022/08/29 04:12:04;;;;;;;;;;;;;;;22.89;57.87;98851.91;1631417;86;20104;-68
2022/08/29 04:14:31;;;;;;;;;;;;;;;23.02;57.56;98856.84;1632224;86;20132;-68
2022/08/29 04:16:58;;;;;;;;;;;;;;;23.12;57.26;98849.31;1631791;86;20092;-68
2022/08/29 04:19:24;;;;;;;;;;;;;;;23.24;56.95;98851.23;1631684;86;20135;-68
2022/08/29 04:21:51;;;;;;;;;;;;;;;23.39;56.71;98846.44;1630891;86;21170;-69
2022/08/29 04:24:18;;;;;;;;;;;;;;;23.58;56.31;98847.54;1630337;86;20128;-67
2022/08/29 04:26:45;;;;;;;;;;;;;;;23.79;55.90;98841.05;1631371;86;20147;-70
2022/08/29 04:29:12;;;;;;;;;;;;;;;24.06;55.37;98838.89;1631630;86;20947;-68
2022/08/29 04:31:39;;;;;;;;;;;;;;;24.32;54.69;98835.09;1631566;86;20423;-69
2022/08/29 04:34:06;;;;;;;;;;;;;;;24.60;54.08;98834.19;1632673;86;20635;-70
2022/08/29 04:36:34;;;;;;;;;;;;;;;24.86;53.43;98826.25;1631581;86;20173;-68
2022/08/29 04:39:00;;;;;;;;;;;;;;;25.16;52.82;98820.11;1632248;86;20160;-68
2022/08/29 04:41:27;;;;;;;;;;;;;;;25.48;52.10;98823.77;1630671;86;20108;-68
2022/08/29 04:43:53;;;;;;;;;;;;;;;25.79;51.25;98816.18;1632174;86;20085;-69
2022/08/29 04:46:19;;;;;;;;;;;;;;;26.11;50.62;98823.81;1630066;86;21204;-69
2022/08/29 04:48:46;;;;;;;;;;;;;;;26.47;50.03;98818.30;1631209;86;20172;-68
2022/08/29 04:51:12;;;;;;;;;;;;;;;26.86;49.22;98820.33;1630734;86;20092;-68
2022/08/29 04:53:39;;;;;;;;;;;;;;;27.21;48.28;98823.71;1631335;86;20092;-70
2022/08/29 04:56:08;;;;;;;;;;;;;;;27.54;47.57;98822.70;1643634;86;20155;-70
2022/08/29 04:58:37;;;;;;;;;;;;;;;27.89;46.69;98826.27;1644141;86;21172;-69
2022/08/29 05:01:04;;;;;;;;;;;;;;;28.24;45.98;98828.14;1643030;86;20131;-69
2022/08/29 05:03:32;;;;;;;;;;;;;;;28.56;45.13;98829.47;1644333;86;20091;-71
2022/08/29 05:06:02;;;;;;;;;;;;;;;28.86;44.52;98813.86;1644269;86;20119;-70
2022/08/29 05:08:29;;;;;;;;;;;;;;;29.15;43.64;98816.23;1643669;86;20437;-70
2022/08/29 05:10:56;;;;;;;;;;;;;;;29.41;42.86;98812.42;1642637;86;21917;-70
2022/08/29 05:13:22;;;;;;;;;;;;;;;29.56;42.34;98815.62;1642745;86;20099;-68
2022/08/29 05:15:49;;;;;;;;;;;;;;;29.73;42.05;98819.86;1643720;86;20100;-70
2022/08/29 05:18:18;;;;;;;;;;;;;;;29.92;41.64;98814.23;1643163;86;20177;-69
2022/08/29 05:20:46;;;;;;;;;;;;;;;30.18;41.40;98822.06;1643648;86;20170;-68
2022/08/29 05:23:13;;;;;;;;;;;;;;;30.50;40.94;98813.52;1643678;86;21127;-69
2022/08/29 05:25:40;;;;;;;;;;;;;;;30.81;40.32;98814.88;1643832;86;20156;-69
2022/08/29 05:28:10;;;;;;;;;;;;;;;31.12;39.71;98817.56;1642841;86;20116;-70
2022/08/29 05:30:36;;;;;;;;;;;;;;;31.44;39.03;98819.89;1642608;86;20165;-68
2022/08/29 05:33:03;;;;;;;;;;;;;;;31.76;38.48;98809.79;1643088;86;20132;-69
2022/08/29 05:35:29;;;;;;;;;;;;;;;32.08;37.81;98804.92;1643059;86;22384;-68
2022/08/29 05:37:55;;;;;;;;;;;;;;;32.35;37.08;98813.61;1643937;86;20195;-67
2022/08/29 05:40:22;;;;;;;;;;;;;;;32.56;36.66;98819.23;1644261;86;20096;-67
2022/08/29 05:42:48;;;;;;;;;;;;;;;32.81;36.24;98812.79;1644156;86;20136;-69
2022/08/29 05:45:14;;;;;;;;;;;;;;;33.07;35.79;98815.43;1629911;86;20327;-68
2022/08/29 05:47:41;;;;;;;;;;;;;;;33.37;35.36;98810.70;1636340;86;21167;-68
2022/08/29 05:50:10;;;;;;;;;;;;;;;33.64;34.89;98812.94;1625823;86;20095;-67
2022/08/29 05:52:36;;;;;;;;;;;;;;;33.95;34.42;98820.77;1644200;86;20095;-68
2022/08/29 05:55:04;;;;;;;;;;;;;;;34.21;33.91;98821.94;1641706;86;20631;-68
2022/08/29 05:57:31;;;;;;;;;;;;;;;34.42;33.44;98817.13;1639279;86;20247;-67
2022/08/29 05:59:57;;;;;;;;;;;;;;;34.63;33.13;98814.55;1639394;86;21151;-69
2022/08/29 06:02:24;;;;;;;;;;;;;;;34.86;32.84;98820.42;1639152;86;20099;-70
2022/08/29 06:04:50;;;;;;;;;;;;;;;35.13;32.49;98818.95;1637161;86;20437;-69
2022/08/29 06:07:17;;;;;;;;;;;;;;;35.37;32.06;98827.20;1638934;86;20128;-70
2022/08/29 06:09:43;;;;;;;;;;;;;;;35.63;31.63;98832.36;1639368;86;20092;-70
2022/08/29 06:12:12;;;;;;;;;;;;;;;35.85;31.28;98823.53;1639240;86;21115;-69
2022/08/29 06:14:38;;;;;;;;;;;;;;;36.07;30.98;98817.45;1639038;86;20103;-69
2022/08/29 06:17:05;;;;;;;;;;;;;;;36.31;30.55;98829.78;1638231;86;20092;-68
2022/08/29 06:19:33;;;;;;;;;;;;;;;36.45;30.33;98825.98;1639285;86;20167;-69
2022/08/29 06:22:02;;;;;;;;;;;;;;;36.70;30.13;98827.23;1639056;86;20128;-68
2022/08/29 06:24:29;;;;;;;;;;;;;;;36.99;29.67;98830.39;1638551;86;21176;-68
2022/08/29 06:26:56;;;;;;;;;;;;;;;37.26;29.21;98827.23;1637764;86;20166;-69
2022/08/29 06:29:23;;;;;;;;;;;;;;;37.52;28.79;98824.67;1645762;86;20128;-68
2022/08/29 06:31:49;;;;;;;;;;;;;;;37.66;28.28;98828.34;1642644;86;20225;-70
2022/08/29 06:34:16;;;;;;;;;;;;;;;37.63;28.21;98832.66;1636014;87;20504;-71
2022/08/29 06:36:42;;;;;;;;;;;;;;;37.42;28.28;98828.02;1636205;87;21259;-73
2022/08/29 06:39:09;;;;;;;;;;;;;;;36.96;28.73;98831.68;1635945;87;20100;-71
2022/08/29 06:41:36;;;;;;;;;;;;;;;36.58;29.19;98830.11;1635934;87;20158;-71
2022/08/29 06:44:05;;;;;;;;;;;;;;;36.28;29.59;98833.26;1642242;86;20131;-71
2022/08/29 06:46:33;;;;;;;;;;;;;;;36.06;30.03;98833.82;1636138;87;20121;-71
2022/08/29 06:49:01;;;;;;;;;;;;;;;36.27;29.93;98844.67;1635981;86;21182;-74
2022/08/29 06:51:31;;;;;;;;;;;;;;;36.53;29.71;98845.61;1635839;86;20080;-71
2022/08/29 06:53:56;;;;;;;;;;;;;;;36.73;29.44;98844.54;1636130;86;20546;-71
2022/08/29 06:56:22;;;;;;;;;;;;;;;36.84;29.15;98840.86;1630983;87;20166;-72
2022/08/29 06:58:49;;;;;;;;;;;;;;;36.59;29.21;98844.16;1629549;87;20458;-71
2022/08/29 07:01:16;;;;;;;;;;;;;;;36.06;29.82;98840.74;1626392;88;21332;-73
2022/08/29 07:03:42;;;;;;;;;;;;;;;35.58;30.67;98841.71;1626338;88;20129;-73
2022/08/29 07:06:10;;;;;;;;;;;;;;;35.22;31.37;98847.28;1627420;88;20116;-72
2022/08/29 07:08:36;;;;;;;;;;;;;;;34.88;31.74;98856.01;1635371;86;20190;-73
2022/08/29 07:11:02;;;;;;;;;;;;;;;34.58;32.17;98847.92;1642926;86;20128;-73
2022/08/29 07:13:29;;;;;;;;;;;;;;;34.34;32.62;98856.11;1626447;88;22016;-75
2022/08/29 07:15:56;;;;;;;;;;;;;;;34.06;32.94;98860.05;1627525;88;20248;-74
2022/08/29 07:18:24;;;;;;;;;;;;;;;33.78;33.58;98856.79;1626740;88;20357;-74
2022/08/29 07:20:51;;;;;;;;;;;;;;;33.51;34.28;98862.23;1626432;88;20148;-72
2022/08/29 07:23:17;;;;;;;;;;;;;;;33.15;34.70;98862.80;1626289;88;20109;-72
2022/08/29 07:25:44;;;;;;;;;;;;;;;32.86;35.27;98866.88;1628616;88;21102;-72
2022/08/29 07:28:10;;;;;;;;;;;;;;;32.74;35.97;98875.84;1629012;88;20200;-72
2022/08/29 07:30:37;;;;;;;;;;;;;;;32.77;36.16;98874.38;1629114;88;20211;-72
2022/08/29 07:33:04;;;;;;;;;;;;;;;32.77;36.17;98871.03;1627451;88;20181;-73
2022/08/29 07:35:32;;;;;;;;;;;;;;;32.73;36.40;98875.59;1626703;88;20148;-73
2022/08/29 07:37:59;;;;;;;;;;;;;;;32.63;36.47;98875.96;1627007;88;21135;-73
2022/08/29 07:40:26;;;;;;;;;;;;;;;32.53;36.65;98876.32;1627578;87;20116;-75
2022/08/29 07:42:52;;;;;;;;;;;;;;;32.48;36.74;98881.16;1626435;88;20121;-74
2022/08/29 07:45:19;;;;;;;;;;;;;;;32.28;37.00;98894.47;1626303;88;20778;-71
2022/08/29 07:47:45;;;;;;;;;;;;;;;31.96;37.61;98896.91;1628022;88;20493;-75
2022/08/29 07:50:12;;;;;;;;;;;;;;;31.65;38.34;98894.31;1630028;87;21172;-71
2022/08/29 07:52:39;;;;;;;;;;;;;;;31.38;38.83;98898.11;1629283;88;20092;-72
2022/08/29 07:55:07;;;;;;;;;;;;;;;31.13;39.53;98907.88;1626282;87;20493;-72
2022/08/29 07:57:34;;;;;;;;;;;;;;;30.87;40.03;98905.57;1628334;88;20666;-75
2022/08/29 08:00:03;;;;;;;;;;;;;;;30.60;40.63;98911.82;1627170;88;20159;-73
2022/08/29 08:02:31;;;;;;;;;;;;;;;30.30;41.25;98915.55;1627345;87;21713;-73
2022/08/29 08:04:59;;;;;;;;;;;;;;;30.03;41.99;98912.95;1628695;88;20641;-75
2022/08/29 08:07:25;;;;;;;;;;;;;;;29.84;42.65;98919.97;1633329;86;20176;-73
2022/08/29 08:09:52;;;;;;;;;;;;;;;29.66;43.20;98922.82;1626178;88;20161;-73
2022/08/29 08:12:18;;;;;;;;;;;;;;;29.47;43.53;98923.50;1629492;86;20446;-70
2022/08/29 08:14:44;;;;;;;;;;;;;;;29.27;44.07;98924.75;1629211;88;21106;-70
2022/08/29 08:17:11;;;;;;;;;;;;;;;29.07;44.63;98925.92;1630555;86;20129;-71
2022/08/29 08:19:38;;;;;;;;;;;;;;;28.92;45.10;98932.25;1627237;88;20101;-71
2022/08/29 08:22:04;;;;;;;;;;;;;;;28.79;45.41;98932.50;1627473;87;20557;-71
2022/08/29 08:24:31;;;;;;;;;;;;;;;28.64;45.75;98934.97;1627609;87;20190;-72
2022/08/29 08:26:57;;;;;;;;;;;;;;;28.48;46.23;98939.59;1629095;88;21107;-74
2022/08/29 08:29:24;;;;;;;;;;;;;;;28.34;46.71;98936.02;1627419;88;20445;-74
2022/08/29 08:31:50;;;;;;;;;;;;;;;28.20;47.03;98944.72;1629303;88;20454;-72
2022/08/29 08:34:17;;;;;;;;;;;;;;;28.03;47.49;98943.32;1626930;88;20135;-73
2022/08/29 08:36:43;;;;;;;;;;;;;;;27.90;48.00;98945.40;1626901;88;20092;-74
2022/08/29 08:39:11;;;;;;;;;;;;;;;27.80;48.36;98944.19;1628999;88;21173;-74
2022/08/29 08:41:53;;;;;;;;;;;;;;;27.75;48.70;98948.91;1628671;88;20097;-72
2022/08/29 08:44:42;;;;;;;;;;;;;;;27.67;48.93;98955.84;1630086;86;20417;-72
2022/08/29 08:47:09;;;;;;;;;;;;;;;27.56;49.35;98951.61;1628436;87;20130;-71
2022/08/29 08:49:41;;;;;;;;;;;;;;;27.47;49.83;98952.02;1629035;88;20096;-71
2022/08/29 08:52:20;;;;;;;;;;;;;;;27.41;50.25;98951.27;1612562;88;21397;-70
2022/08/29 08:54:49;;;;;;;;;;;;;;;27.39;50.55;98952.12;1627441;88;20172;-72
2022/08/29 08:57:15;;;;;;;;;;;;;;;27.41;50.76;98957.27;1620732;86;20125;-74
2022/08/29 08:59:43;;;;;;;;;;;;;;;27.49;50.78;98951.17;1639318;86;20104;-71
2022/08/29 09:02:34;;;;;;;;;;;;;;;27.62;50.73;98957.83;1638043;86;20128;-73
2022/08/29 09:05:07;;;;;;;;;;;;;;;27.78;50.48;98953.78;1638879;86;21222;-73
2022/08/29 09:07:42;;;;;;;;;;;;;;;27.94;50.20;98953.28;1639073;86;20152;-73
2022/08/29 09:10:27;;;;;;;;;;;;;;;28.03;49.94;98951.52;1638569;86;20104;-72
2022/08/29 09:13:18;;;;;;;;;;;;;;;28.11;49.77;98953.59;1638807;86;20667;-74
2022/08/29 09:15:46;;;;;;;;;;;;;;;28.22;49.74;98952.06;1637842;86;20505;-67
2022/08/29 09:18:26;;;;;;;;;;;;;;;28.32;49.50;98958.18;1636896;86;21111;-66
2022/08/29 09:20:53;;;;;;;;;;;;;;;28.41;49.32;98957.77;1635763;86;20177;-68
2022/08/29 09:23:46;;;;;;;;;;;;;;;28.51;49.00;98963.63;1636513;86;20133;-68
2022/08/29 09:26:15;;;;;;;;;;;;;;;28.54;48.89;98963.03;1623540;87;20434;-69
2022/08/29 09:28:41;;;;;;;;;;;;;;;28.58;48.81;98966.77;1635678;86;20421;-68
2022/08/29 09:31:21;;;;;;;;;;;;;;;28.63;48.72;98965.34;1635786;87;20668;-69
2022/08/29 09:33:54;;;;;;;;;;;;;;;28.73;48.65;98970.67;1636856;86;20156;-68
2022/08/29 09:36:47;;;;;;;;;;;;;;;28.84;48.36;98966.61;1635777;86;20172;-69
2022/08/29 09:39:22;;;;;;;;;;;;;;;28.96;48.36;98968.88;1638206;86;20177;-68
2022/08/29 09:42:01;;;;;;;;;;;;;;;29.06;48.17;98965.39;1636732;87;20080;-69
2022/08/29 09:44:31;;;;;;;;;;;;;;;29.13;48.03;98968.53;1634415;87;21106;-69
2022/08/29 09:47:07;;;;;;;;;;;;;;;29.19;47.86;98963.78;1636636;86;37419;-69
2022/08/29 09:49:33;;;;;;;;;;;;;;;29.26;47.54;98962.28;1636195;86;20103;-70
2022/08/29 09:52:10;;;;;;;;;;;;;;;29.38;47.30;98965.08;1636183;86;20128;-67
2022/08/29 09:54:37;;;;;;;;;;;;;;;29.59;47.07;98967.66;1637272;87;20159;-68
2022/08/29 09:57:18;;;;;;;;;;;;;;;29.92;46.36;98966.40;1637642;86;21317;-69
2022/08/29 09:59:47;;;;;;;;;;;;;;;30.15;45.89;98965.30;1639301;86;20108;-70
2022/08/29 10:02:25;;;;;;;;;;;;;;;30.42;45.33;98969.91;1639389;86;20091;-69
2022/08/29 10:04:57;;;;;;;;;;;;;;;30.62;44.60;98969.39;1638384;86;20124;-69
2022/08/29 10:07:25;;;;;;;;;;;;;;;30.70;44.37;98970.57;1638788;86;20084;-72
2022/08/29 10:10:04;;;;;;;;;;;;;;;30.75;44.33;98971.81;1639455;86;21178;-70
2022/08/29 10:12:50;;;;;;;;;;;;;;;30.69;44.21;98973.88;1639534;86;20470;-69
2022/08/29 10:15:19;;;;;;;;;;;;;;;30.58;44.49;98969.20;1639194;86;20520;-69
2022/08/29 10:20:55;;;;;;;;;;;;;;;30.46;44.84;98970.89;1639551;86;20124;-68
2022/08/29 10:23:37;;;;;;;;;;;;;;;30.63;44.71;98972.95;1599809;86;21200;-70
2022/08/29 10:26:33;;;;;;;;;;;;;;;31.12;43.97;98968.09;1638490;86;20108;-69
2022/08/29 10:29:30;;;;;;;;;;;;;;;31.54;43.32;98965.84;1570022;86;20111;-69
2022/08/29 10:32:27;;;;;;;;;;;;;;;31.85;42.09;98965.17;1639343;86;20167;-68
2022/08/29 10:35:03;;;;;;;;;;;;;;;32.16;41.57;98963.12;1639274;86;20176;-69
2022/08/29 10:37:36;;;;;;;;;;;;;;;32.64;40.99;98962.91;1638063;86;21295;-68
2022/08/29 10:40:07;;;;;;;;;;;;;;;33.04;40.12;98964.02;1639450;86;20499;-69
2022/08/29 10:42:35;;;;;;;;;;;;;;;33.40;39.39;98965.19;1641253;86;20187;-70
2022/08/29 10:45:24;;;;;;;;;;;;;;;33.79;38.74;98960.47;1638950;86;20445;-72
2022/08/29 10:47:58;;;;;;;;;;;;;;;34.18;38.11;98955.91;1636537;87;20096;-71
2022/08/29 10:50:31;;;;;;;;;;;;;;;34.51;37.09;98953.97;1636233;86;21152;-72
2022/08/29 10:53:15;;;;;;;;;;;;;;;34.69;36.87;98952.67;1635668;87;20112;-70
2022/08/29 10:56:03;;;;;;;;;;;;;;;34.89;36.63;98950.97;1637374;86;20140;-69
2022/08/29 10:58:48;;;;;;;;;;;;;;;34.98;36.26;98945.36;1636925;86;20242;-71
2022/08/29 11:01:41;;;;;;;;;;;;;;;35.10;36.24;98944.01;1632748;86;20180;-68
2022/08/29 11:04:23;;;;;;;;;;;;;;;35.22;35.89;98942.05;1631962;86;21759;-69
2022/08/29 11:07:08;;;;;;;;;;;;;;;35.03;35.70;98945.12;1632257;86;20422;-70
2022/08/29 11:09:41;;;;;;;;;;;;;;;34.92;35.98;98948.09;1617064;88;20430;-69
2022/08/29 11:12:20;;;;;;;;;;;;;;;35.21;35.72;98945.17;1631704;86;20101;-70
2022/08/29 11:15:08;;;;;;;;;;;;;;;35.18;35.41;98943.91;1632570;86;20140;-70
2022/08/29 11:17:36;;;;;;;;;;;;;;;34.96;35.44;98951.81;1536945;89;21297;-71
2022/08/29 11:20:18;;;;;;;;;;;;;;;34.66;35.81;98951.97;1636312;86;20109;-74
2022/08/29 11:22:48;;;;;;;;;;;;;;;34.60;35.69;98951.13;1612102;87;20450;-72
2022/08/29 11:25:16;;;;;;;;;;;;;;;34.68;35.79;98942.76;1638733;86;20158;-71
2022/08/29 11:28:07;;;;;;;;;;;;;;;34.92;34.98;98954.44;1626189;86;20084;-71
2022/08/29 11:30:41;;;;;;;;;;;;;;;34.93;34.56;98959.39;1633616;86;21237;-71
2022/08/29 11:33:28;;;;;;;;;;;;;;;34.76;34.85;98953.48;1632248;86;20132;-69
2022/08/29 11:36:18;;;;;;;;;;;;;;;34.72;35.12;98959.47;1632905;86;20104;-69
2022/08/29 11:39:07;;;;;;;;;;;;;;;34.58;35.11;98960.33;1632268;87;20088;-68
2022/08/29 11:41:50;;;;;;;;;;;;;;;34.42;34.94;98956.55;1642060;86;20176;-68
2022/08/29 11:44:28;;;;;;;;;;;;;;;34.33;34.87;98954.47;1629698;87;21176;-69
2022/08/29 11:46:55;;;;;;;;;;;;;;;34.17;34.81;98952.89;1616904;88;20104;-70
2022/08/29 11:49:25;;;;;;;;;;;;;;;34.06;35.09;98954.44;1632303;88;20191;-69
2022/08/29 11:51:54;;;;;;;;;;;;;;;33.98;35.13;98960.23;1630011;88;20654;-69
2022/08/29 11:54:27;;;;;;;;;;;;;;;33.87;35.51;98952.11;1630439;86;20085;-68
2022/08/29 11:57:03;;;;;;;;;;;;;;;33.83;35.82;98951.75;1640264;85;21847;-70
2022/08/29 11:59:51;;;;;;;;;;;;;;;33.84;35.90;98952.78;1644156;85;20429;-69
2022/08/29 12:02:33;;;;;;;;;;;;;;;33.85;35.55;98951.65;1645052;85;20258;-68
2022/08/29 12:05:05;;;;;;;;;;;;;;;33.73;35.25;98940.55;1619805;86;20196;-72
2022/08/29 12:07:40;;;;;;;;;;;;;;;33.68;35.45;98946.83;1626179;86;20120;-68
2022/08/29 12:10:22;;;;;;;;;;;;;;;33.59;35.70;98948.25;1628381;86;21285;-70
2022/08/29 12:12:50;;;;;;;;;;;;;;;33.55;35.91;98950.05;1628763;86;20180;-68
2022/08/29 12:15:36;;;;;;;;;;;;;;;33.48;36.03;98956.63;1636435;86;20173;-69
2022/08/29 12:18:16;;;;;;;;;;;;;;;33.40;36.02;98947.84;1618879;86;20149;-68
2022/08/29 12:20:46;;;;;;;;;;;;;;;33.23;36.01;98945.18;1637559;86;20473;-69
2022/08/29 12:23:16;;;;;;;;;;;;;;;33.08;36.32;98948.49;1638415;86;21198;-69
2022/08/29 12:26:01;;;;;;;;;;;;;;;32.94;36.67;98943.97;1644792;86;20104;-73
2022/08/29 12:28:31;;;;;;;;;;;;;;;32.80;37.32;98945.33;1646640;86;20454;-70
2022/08/29 12:31:04;;;;;;;;;;;;;;;32.72;37.12;98951.08;1639234;86;20088;-72
2022/08/29 12:33:52;;;;;;;;;;;;;;;32.63;37.54;98953.62;1638870;86;20112;-69
2022/08/29 12:36:49;;;;;;;;;;;;;;;32.59;37.75;98950.70;1639241;86;22124;-69
2022/08/29 12:39:28;;;;;;;;;;;;;;;32.57;38.04;98946.66;1570578;87;20445;-69
2022/08/29 12:42:07;;;;;;;;;;;;;;;32.50;38.27;98941.63;1639318;86;20180;-70
2022/08/29 12:44:40;;;;;;;;;;;;;;;32.47;38.43;98940.09;1639298;86;20629;-69
2022/08/29 12:47:09;;;;;;;;;;;;;;;32.46;38.51;98954.41;1638777;86;20175;-67
2022/08/29 12:49:50;;;;;;;;;;;;;;;32.43;38.23;98957.03;1639474;86;21123;-68
2022/08/29 12:52:27;;;;;;;;;;;;;;;32.41;38.44;98952.42;1640111;86;20104;-70
2022/08/29 12:54:55;;;;;;;;;;;;;;;32.43;38.36;98955.66;1640184;86;20092;-70
2022/08/29 12:57:24;;;;;;;;;;;;;;;32.43;38.40;98955.09;1639167;86;20193;-69
2022/08/29 12:59:52;;;;;;;;;;;;;;;32.46;38.48;98957.16;1638407;86;20080;-70
2022/08/29 13:02:24;;;;;;;;;;;;;;;32.43;38.18;98953.72;1639308;86;21740;-68
2022/08/29 13:04:52;;;;;;;;;;;;;;;32.36;38.36;98950.63;1639307;86;20108;-69
2022/08/29 13:07:18;;;;;;;;;;;;;;;32.32;38.65;98952.42;1638829;86;20442;-68
2022/08/29 13:09:52;;;;;;;;;;;;;;;32.21;38.49;98954.70;1637701;86;20450;-70
2022/08/29 13:12:33;;;;;;;;;;;;;;;32.04;38.48;98956.64;1639387;86;20120;-68